METAR Data
IDs: Format: Raw Decoded Include TAF

Data at: 1417 UTC 08 May 2021

METAR for:KDLS (The Dalles Muni, OR, US)
Text:KDLS 081353Z AUTO 30009KT 10SM FEW049 09/01 A3035 RMK AO2 SLP279 T00890011
Temperature: 8.9°C ( 48°F)
Dewpoint: 1.1°C ( 34°F) [RH = 58%]
Pressure (altimeter):30.35 inches Hg (1027.9 mb) [Sea level pressure: 1027.9 mb]
Winds:from the WNW (300 degrees) at 10 MPH (9 knots; 4.6 m/s)
Visibility:10 or more sm (16+ km)
Ceiling:at least 12,000 feet AGL
Clouds: few clouds at 4900 feet AGL
QC Flag:automated observation with no human augmentation